Kyoto Maru — JD3149 — position and weather

sailwx.info

Track history (hours):
 
Tides and Currents Weather Stations Pressure Air Temp Water Temp Dewpoint Dewpoint Depression Visibility Wind Speed Wind Dir Waves Ship Positions

Kyoto Maru

Last reported at 2017-May-25 08:30 UTC. Time now 2017-May-25 08:50 UTC.
Position N 35°27' E 139°40'.

Length 34 m; draft 3.8 m.

Type: Tug. MMSI: 431002219.

Date/timePositionNaut miles runAvg speedWind from/ knotsBaromVisibWave heightAir tempDewpointWater temp
2017-May-25 08:30N 35°27' E 139°40'0 0.0
2017-May-25 08:00N 35°27' E 139°40'0 0.0
2017-May-25 07:30N 35°27' E 139°40'0 0.0
2017-May-25 07:00N 35°27' E 139°40'0 0.0
2017-May-25 06:30N 35°27' E 139°40'0 0.0
2017-May-25 06:00N 35°27' E 139°40'0 0.0
2017-May-25 05:30N 35°27' E 139°40'0 0.0
2017-May-25 05:00N 35°27' E 139°40'0 0.0
2017-May-25 04:30N 35°27' E 139°40'0 0.0
2017-May-25 04:00N 35°27' E 139°40'0 0.0
2017-May-25 03:30N 35°27' E 139°40'0 0.0
2017-May-25 03:00N 35°27' E 139°40'0 0.0
2017-May-25 02:30N 35°27' E 139°40'1 3.0
2017-May-25 02:00N 35°27' E 139°41'3 5.7
2017-May-25 01:30N 35°24' E 139°40'2 3.1
2017-May-25 01:00N 35°24' E 139°38'3 5.5
2017-May-25 00:30N 35°23' E 139°41'0 0.9
2017-May-25 00:00N 35°23' E 139°41'0 0.0
2017-May-24 23:30N 35°23' E 139°41'0 0.0
2017-May-24 23:00N 35°23' E 139°41'0 0.0
2017-May-24 22:30N 35°23' E 139°41'0 0.0
2017-May-24 22:00N 35°23' E 139°41'1 2.2
2017-May-24 21:30N 35°24' E 139°40'0 0.7
2017-May-24 21:00N 35°24' E 139°41'0 0.6
2017-May-24 20:30N 35°24' E 139°41'4 7.1
2017-May-24 20:00N 35°27' E 139°40'1 1.4
2017-May-24 19:30N 35°27' E 139°40'0 0.0
2017-May-24 19:00N 35°27' E 139°40'0 0.0
2017-May-24 18:30N 35°27' E 139°40'0 0.0
2017-May-24 18:00N 35°27' E 139°40'0 0.0
2017-May-24 17:30N 35°27' E 139°40'0 0.0
2017-May-24 17:00N 35°27' E 139°40'0 0.0
2017-May-24 16:30N 35°27' E 139°40'0 0.0
2017-May-24 16:00N 35°27' E 139°40'0 0.0
2017-May-24 15:30N 35°27' E 139°40'0 0.0
2017-May-24 15:00N 35°27' E 139°40'0 0.0
2017-May-24 14:30N 35°27' E 139°40'0 0.0
2017-May-24 13:30N 35°27' E 139°40'0 0.0
2017-May-24 13:00N 35°27' E 139°40'0 0.0
2017-May-24 12:30N 35°27' E 139°40'0 0.0
2017-May-24 12:00N 35°27' E 139°40'0 0.0
2017-May-24 11:30N 35°27' E 139°40'0 0.0
2017-May-24 11:00N 35°27' E 139°40'0 0.0
2017-May-24 10:30N 35°27' E 139°40'0 0.0
2017-May-24 10:00N 35°27' E 139°40'0 0.0
2017-May-24 09:30N 35°27' E 139°40'0 0.0
2017-May-24 09:00N 35°27' E 139°40'0 0.0
2017-May-24 08:30N 35°27' E 139°40'0 0.0
2017-May-24 08:00N 35°27' E 139°40'0 0.0
2017-May-24 07:30N 35°27' E 139°40'0 0.0
2017-May-24 07:00N 35°27' E 139°40'0 0.0
2017-May-24 06:30N 35°27' E 139°40'1 2.3
2017-May-24 06:00N 35°27' E 139°41'1 1.1
2017-May-24 05:30N 35°28' E 139°40'0 0.0
2017-May-24 05:00N 35°28' E 139°40'0 0.0
2017-May-24 04:30N 35°28' E 139°40'0 0.0
2017-May-24 04:00N 35°28' E 139°40'0 0.0
2017-May-24 03:30N 35°28' E 139°40'0 0.0
2017-May-24 03:00N 35°28' E 139°40'0 0.0
2017-May-24 02:30N 35°28' E 139°40'0 0.0
2017-May-24 02:00N 35°28' E 139°40'0 0.0
2017-May-24 01:30N 35°28' E 139°40'1 1.1
2017-May-24 01:00N 35°28' E 139°41'4 8.5
2017-May-24 00:30N 35°30' E 139°45'1 2.3
2017-May-24 00:00N 35°31' E 139°46'2 4.8
2017-May-23 23:30N 35°30' E 139°44'3 5.6
2017-May-23 23:00N 35°27' E 139°44'1 1.4
2017-May-23 22:30N 35°27' E 139°43'3 5.4
2017-May-23 22:00N 35°27' E 139°40'0 0.7
2017-May-23 21:30N 35°27' E 139°40'0 0.0
2017-May-23 21:00N 35°27' E 139°40'0 0.0
2017-May-23 20:30N 35°27' E 139°40'0 0.0
2017-May-23 20:00N 35°27' E 139°40'0 0.0
2017-May-23 19:30N 35°27' E 139°40'0 0.0
2017-May-23 19:00N 35°27' E 139°40'0 0.0
2017-May-23 18:30N 35°27' E 139°40'0 0.0
2017-May-23 18:00N 35°27' E 139°40'0 0.0
2017-May-23 17:30N 35°27' E 139°40'0 0.0
2017-May-23 17:00N 35°27' E 139°40'0 0.0
2017-May-23 16:30N 35°27' E 139°40'0 0.0
2017-May-23 16:00N 35°27' E 139°40'0 0.0
2017-May-23 15:30N 35°27' E 139°40'0 0.0
2017-May-23 15:00N 35°27' E 139°40'0 0.0
2017-May-23 14:30N 35°27' E 139°40'0 0.0
2017-May-23 13:30N 35°27' E 139°40'0 0.0
2017-May-23 13:00N 35°27' E 139°40'0 0.0
2017-May-23 12:30N 35°27' E 139°40'0 0.0
2017-May-23 12:00N 35°27' E 139°40'0 0.0
2017-May-23 11:30N 35°27' E 139°40'0 0.0
2017-May-23 11:00N 35°27' E 139°40'0 0.0
2017-May-23 10:30N 35°27' E 139°40'0 0.0
2017-May-23 10:00N 35°27' E 139°40'0 0.0
2017-May-23 09:30N 35°27' E 139°40'0 0.0
2017-May-23 09:00N 35°27' E 139°40'0 0.0
2017-May-23 08:30N 35°27' E 139°40'0 0.0
2017-May-23 08:00N 35°27' E 139°40'0 0.1
2017-May-23 07:30N 35°27' E 139°40'4 7.2
2017-May-23 07:00N 35°24' E 139°42'1 1.7
2017-May-23 06:30N 35°24' E 139°41'0 0.3
2017-May-23 06:00N 35°24' E 139°41'1 2.0
2017-May-23 05:30N 35°24' E 139°42'3 7.0
2017-May-23 05:00N 35°27' E 139°40'0 0.5
2017-May-23 04:31N 35°27' E 139°40'0 0.0
2017-May-23 04:01N 35°27' E 139°40'0 0.0
2017-May-23 03:31N 35°27' E 139°40'0 0.0
2017-May-23 03:00N 35°27' E 139°40'0 0.0
2017-May-23 02:30N 35°27' E 139°40'0 0.0
2017-May-23 02:00N 35°27' E 139°40'0 0.0
2017-May-23 01:31N 35°27' E 139°40'0 0.0
2017-May-23 01:00N 35°27' E 139°40'0 0.0
2017-May-23 00:31N 35°27' E 139°40'0 0.0
2017-May-23 00:00N 35°27' E 139°40'0 0.0
2017-May-22 23:31N 35°27' E 139°40'0 0.2
2017-May-22 23:01N 35°27' E 139°40'2 4.0
2017-May-22 22:31N 35°25' E 139°41'0 0.7
2017-May-22 22:00N 35°25' E 139°41'1 2.1
2017-May-22 21:30N 35°25' E 139°42'1 3.0
2017-May-22 21:00N 35°27' E 139°42'1 1.3
2017-May-22 20:31N 35°27' E 139°41'1 2.6
2017-May-22 20:00N 35°27' E 139°40'0 0.0
2017-May-22 19:31N 35°27' E 139°40'0 0.1
2017-May-22 19:01N 35°27' E 139°40'0 0.0
2017-May-22 18:30N 35°27' E 139°40'0 0.1
2017-May-22 18:01N 35°27' E 139°40'0 0.0
2017-May-22 17:31N 35°27' E 139°40'0 0.0
2017-May-22 17:01N 35°27' E 139°40'0 0.1
2017-May-22 16:31N 35°27' E 139°40'0 0.1
2017-May-22 16:01N 35°27' E 139°40'0 0.0
2017-May-22 15:31N 35°27' E 139°40'0 0.0
2017-May-22 15:01N 35°27' E 139°40'0 0.0
2017-May-22 14:01N 35°27' E 139°40'0 0.0
2017-May-22 13:31N 35°27' E 139°40'0 0.0
2017-May-22 13:00N 35°27' E 139°40'0 0.1
2017-May-22 12:31N 35°27' E 139°40'0 0.1
2017-May-22 12:01N 35°27' E 139°40'0 0.0
2017-May-22 11:31N 35°27' E 139°40'0 0.1
2017-May-22 11:01N 35°27' E 139°40'0 0.0
2017-May-22 10:30N 35°27' E 139°40'0 0.0
2017-May-22 10:01N 35°27' E 139°40'0 0.1
2017-May-22 09:31N 35°27' E 139°40'0 0.0
2017-May-22 09:01N 35°27' E 139°40'2 4.1
2017-May-22 08:31N 35°28' E 139°42'2 4.1
2017-May-22 08:01N 35°27' E 139°40'0 0.0
2017-May-22 07:31N 35°27' E 139°40'0 0.1
2017-May-22 07:01N 35°27' E 139°39'5 9.3
2017-May-22 06:31N 35°30' E 139°44'2 4.1
2017-May-22 06:01N 35°31' E 139°46'1 1.3
2017-May-22 05:31N 35°31' E 139°46'2 3.8
2017-May-22 05:01N 35°29' E 139°47'0 0.0
2017-May-22 04:31N 35°29' E 139°47'2 3.4
2017-May-22 04:01N 35°29' E 139°45'1 1.6
2017-May-22 03:30N 35°28' E 139°44'0 0.0
2017-May-22 03:01N 35°28' E 139°44'0 0.5
2017-May-22 02:30N 35°28' E 139°44'2 4.5
2017-May-22 02:00N 35°26' E 139°46'3 5.6
2017-May-22 01:31N 35°27' E 139°43'0 0.0
2017-May-22 01:00N 35°27' E 139°43'0 0.0
2017-May-22 00:30N 35°27' E 139°43'0 0.0
2017-May-22 00:01N 35°27' E 139°43'1 2.3
2017-May-21 23:31N 35°28' E 139°42'1 2.1
2017-May-21 23:01N 35°29' E 139°42'3 5.2
2017-May-21 22:31N 35°27' E 139°43'3 5.6
2017-May-21 22:00N 35°27' E 139°40'0 0.5
2017-May-21 21:31N 35°27' E 139°40'0 0.0
2017-May-21 21:01N 35°27' E 139°40'0 0.0
2017-May-21 20:31N 35°27' E 139°40'0 0.0
2017-May-21 20:01N 35°27' E 139°40'0 0.0
2017-May-21 19:31N 35°27' E 139°40'0 0.0
2017-May-21 19:01N 35°27' E 139°40'0 0.0
2017-May-21 18:31N 35°27' E 139°40'0 0.0
2017-May-21 18:01N 35°27' E 139°40'0 0.0
2017-May-21 17:31N 35°27' E 139°40'0 0.0
2017-May-21 17:00N 35°27' E 139°40'0 0.0
2017-May-21 16:31N 35°27' E 139°40'0 0.0
2017-May-21 16:01N 35°27' E 139°40'0 0.0
2017-May-21 15:31N 35°27' E 139°40'0 0.0
2017-May-21 15:01N 35°27' E 139°40'0 0.0
2017-May-21 14:31N 35°27' E 139°40'0 0.0
2017-May-21 13:31N 35°27' E 139°40'0 0.0
2017-May-21 13:01N 35°27' E 139°40'0 0.0
2017-May-21 12:31N 35°27' E 139°40'0 0.0
2017-May-21 12:01N 35°27' E 139°40'0 0.0
2017-May-21 11:31N 35°27' E 139°40'0 0.0
2017-May-21 11:01N 35°27' E 139°40'0 0.0
2017-May-21 10:30N 35°27' E 139°40'0 0.0
2017-May-21 10:01N 35°27' E 139°40'0 0.0
2017-May-21 09:31N 35°27' E 139°40'0 0.0
2017-May-21 09:00N 35°27' E 139°40'0 0.0
2017-May-21 08:31N 35°27' E 139°40'0 0.0
2017-May-21 08:01N 35°27' E 139°40'0 0.0
2017-May-21 07:31N 35°27' E 139°40'0 0.0
2017-May-21 07:01N 35°27' E 139°40'0 0.0
2017-May-21 06:31N 35°27' E 139°40'0 0.0
2017-May-21 06:01N 35°27' E 139°40'0 0.0
2017-May-21 05:31N 35°27' E 139°40'0 0.0
2017-May-21 05:01N 35°27' E 139°40'0 0.0
2017-May-21 04:31N 35°27' E 139°40'0 0.0
2017-May-21 04:01N 35°27' E 139°40'0 0.0
2017-May-21 03:31N 35°27' E 139°40'0 0.0
2017-May-21 03:00N 35°27' E 139°40'0 0.0
2017-May-21 02:31N 35°27' E 139°40'0 0.0
2017-May-21 02:01N 35°27' E 139°40'0 0.0
2017-May-21 01:30N 35°27' E 139°40'0 0.0
2017-May-21 01:01N 35°27' E 139°40'0 0.0
2017-May-21 00:31N 35°27' E 139°40'0 0.0
2017-May-21 00:01N 35°27' E 139°40'0 0.0
2017-May-20 23:31N 35°27' E 139°40'0 0.0
2017-May-20 23:01N 35°27' E 139°40'0 0.0
2017-May-20 22:30N 35°27' E 139°40'0 0.0
2017-May-20 22:01N 35°27' E 139°40'0 0.0
2017-May-20 21:31N 35°27' E 139°40'0 0.0
2017-May-20 21:01N 35°27' E 139°40'0 0.0
2017-May-20 20:31N 35°27' E 139°40'0 0.0
2017-May-20 20:01N 35°27' E 139°40'0 0.0
2017-May-20 19:31N 35°27' E 139°40'0 0.0
2017-May-20 19:01N 35°27' E 139°40'0 0.0
2017-May-20 18:31N 35°27' E 139°40'0 0.0
2017-May-20 18:01N 35°27' E 139°40'0 0.0
2017-May-20 17:30N 35°27' E 139°40'0 0.0
2017-May-20 17:01N 35°27' E 139°40'0 0.0
2017-May-20 16:31N 35°27' E 139°40'0 0.0
2017-May-20 16:01N 35°27' E 139°40'0 0.0
2017-May-20 15:31N 35°27' E 139°40'0 0.0
2017-May-20 15:01N 35°27' E 139°40'0 0.0
2017-May-20 14:01N 35°27' E 139°40'0 0.0
2017-May-20 13:31N 35°27' E 139°40'0 0.0
2017-May-20 13:01N 35°27' E 139°40'0 0.0
2017-May-20 12:31N 35°27' E 139°40'0 0.0
2017-May-20 12:00N 35°27' E 139°40'0 0.0
2017-May-20 11:31N 35°27' E 139°40'0 0.0
2017-May-20 11:01N 35°27' E 139°40'0 0.0
2017-May-20 10:31N 35°27' E 139°40'0 0.0
2017-May-20 10:01N 35°27' E 139°40'0 0.0
2017-May-20 09:31N 35°27' E 139°40'0 0.0
2017-May-20 09:01N 35°27' E 139°40'0 0.0
2017-May-20 08:31N 35°27' E 139°40'0 0.0
2017-May-20 08:01N 35°27' E 139°40'0 0.0
2017-May-20 07:30N 35°27' E 139°40'1 1.9
2017-May-20 07:01N 35°27' E 139°41'1 2.4
2017-May-20 06:31N 35°27' E 139°42'0 0.0
2017-May-20 06:01N 35°27' E 139°42'0 0.0
2017-May-20 05:30N 35°27' E 139°42'0 0.0
2017-May-20 05:01N 35°27' E 139°42'0 0.0
2017-May-20 04:31N 35°27' E 139°42'1 3.0
2017-May-20 04:01N 35°28' E 139°44'4 8.7
2017-May-20 03:31N 35°29' E 139°49'5 9.0
2017-May-20 03:01N 35°30' E 139°54'1 0.3
2017-May-19 23:13N 35°29' E 139°55'310.7
2017-May-19 22:59N 35°28' E 139°52'510.7
2017-May-19 22:30N 35°26' E 139°46'5 9.5
2017-May-19 22:01N 35°27' E 139°41'1 2.1
2017-May-19 21:31N 35°27' E 139°40'0 0.0
2017-May-19 21:01N 35°27' E 139°40'0 0.0
2017-May-19 20:31N 35°27' E 139°40'0 0.0
2017-May-19 20:01N 35°27' E 139°40'0 0.0
2017-May-19 19:31N 35°27' E 139°40'0 0.0
2017-May-19 19:00N 35°27' E 139°40'0 0.0
2017-May-19 18:31N 35°27' E 139°40'0 0.0
2017-May-19 18:01N 35°27' E 139°40'0 0.0
2017-May-19 17:31N 35°27' E 139°40'0 0.0
2017-May-19 17:01N 35°27' E 139°40'0 0.0
2017-May-19 16:31N 35°27' E 139°40'0 0.0
2017-May-19 16:01N 35°27' E 139°40'0 0.0
2017-May-19 15:31N 35°27' E 139°40'0 0.0
2017-May-19 15:01N 35°27' E 139°40'0 0.0
2017-May-19 14:01N 35°27' E 139°40'0 0.0
2017-May-19 13:31N 35°27' E 139°40'0 0.0
2017-May-19 13:01N 35°27' E 139°40'0 0.0
2017-May-19 12:31N 35°27' E 139°40'0 0.0
2017-May-19 12:00N 35°27' E 139°40'0 0.0
2017-May-19 11:31N 35°27' E 139°40'0 0.0
2017-May-19 11:01N 35°27' E 139°40'0 0.0
2017-May-19 10:31N 35°27' E 139°40'0 0.0
2017-May-19 10:01N 35°27' E 139°40'0 0.0
2017-May-19 09:30N 35°27' E 139°40'0 0.0
2017-May-19 09:01N 35°27' E 139°40'0 0.0
2017-May-19 08:31N 35°27' E 139°40'0 0.0
2017-May-19 08:01N 35°27' E 139°40'0 0.0
2017-May-19 07:31N 35°27' E 139°40'0 0.0
2017-May-19 07:01N 35°27' E 139°40'0 0.0
2017-May-19 06:30N 35°27' E 139°40'0 0.0
2017-May-19 06:01N 35°27' E 139°40'0 0.0
2017-May-19 05:31N 35°27' E 139°40'0 0.0
2017-May-19 05:01N 35°27' E 139°40'0 0.0
2017-May-19 04:31N 35°27' E 139°40'0 0.0
2017-May-19 04:01N 35°27' E 139°40'0 0.0
2017-May-19 03:30N 35°27' E 139°40'0 0.0
2017-May-19 03:01N 35°27' E 139°40'0 0.0
2017-May-19 02:31N 35°27' E 139°40'0 0.0
2017-May-19 02:01N 35°27' E 139°40'0 0.0
2017-May-19 01:31N 35°27' E 139°40'0 0.0
2017-May-19 01:01N 35°27' E 139°40'0 0.0
2017-May-19 00:31N 35°27' E 139°40'0 0.0
2017-May-19 00:01N 35°27' E 139°40'0 0.0
2017-May-18 23:31N 35°27' E 139°40'0 0.0
2017-May-18 23:01N 35°27' E 139°40'0 0.0
2017-May-18 22:31N 35°27' E 139°40'0 0.0
2017-May-18 22:01N 35°27' E 139°40'1 1.1
2017-May-18 21:31N 35°27' E 139°39'3 6.4
2017-May-18 21:00N 35°25' E 139°42'1 2.3
2017-May-18 20:31N 35°24' E 139°41'0 0.1
2017-May-18 20:01N 35°24' E 139°41'0 0.0
2017-May-18 19:31N 35°24' E 139°41'3 5.1
2017-May-18 19:01N 35°27' E 139°41'1 2.9
2017-May-18 18:31N 35°27' E 139°40'1 2.0
2017-May-18 18:01N 35°27' E 139°41'0 0.4
2017-May-18 17:31N 35°27' E 139°41'1 2.0
2017-May-18 17:01N 35°28' E 139°40'0 0.0
2017-May-18 16:31N 35°28' E 139°40'2 4.8
2017-May-18 16:01N 35°25' E 139°42'2 3.1
2017-May-18 15:31N 35°24' E 139°41'0 0.2
2017-May-18 15:01N 35°24' E 139°41'1 1.1
2017-May-18 14:31N 35°24' E 139°40'1 1.0
2017-May-18 13:31N 35°23' E 139°42'4 8.1
2017-May-18 13:01N 35°27' E 139°40'0 0.1
2017-May-18 12:31N 35°27' E 139°39'0 0.0
2017-May-18 12:01N 35°27' E 139°39'0 0.0
2017-May-18 11:31N 35°27' E 139°39'0 0.0
2017-May-18 11:01N 35°27' E 139°39'2 3.8
2017-May-18 10:31N 35°26' E 139°42'2 4.5
2017-May-18 10:01N 35°24' E 139°41'0 0.1
2017-May-18 09:31N 35°24' E 139°41'1 2.1
2017-May-18 09:01N 35°23' E 139°41'0 0.8
2017-May-18 08:31N 35°23' E 139°41'4 7.5
2017-May-18 08:01N 35°26' E 139°42'2 3.5
2017-May-18 07:31N 35°27' E 139°40'0 0.0
2017-May-18 07:01N 35°27' E 139°40'0 0.0
2017-May-18 06:31N 35°27' E 139°40'0 0.0
2017-May-18 06:01N 35°27' E 139°40'0 0.0
2017-May-18 05:31N 35°27' E 139°40'0 0.0
2017-May-18 05:01N 35°27' E 139°40'0 0.0
2017-May-18 04:31N 35°27' E 139°40'0 0.0
2017-May-18 04:01N 35°27' E 139°40'0 0.0
2017-May-18 03:31N 35°27' E 139°40'0 0.0
2017-May-18 03:01N 35°27' E 139°40'0 0.0
2017-May-18 02:31N 35°27' E 139°40'0 0.0
2017-May-18 02:01N 35°27' E 139°40'0 0.0
2017-May-18 01:31N 35°27' E 139°40'0 0.0
2017-May-18 01:01N 35°27' E 139°40'0 0.0
2017-May-18 00:31N 35°27' E 139°40'0 0.0
2017-May-18 00:01N 35°27' E 139°40'0 0.0
2017-May-17 23:30N 35°27' E 139°40'0 0.0
2017-May-17 23:01N 35°27' E 139°40'0 0.0
2017-May-17 22:31N 35°27' E 139°40'0 0.0
2017-May-17 22:01N 35°27' E 139°40'0 0.0
2017-May-17 21:31N 35°27' E 139°40'0 0.0
2017-May-17 21:00N 35°27' E 139°40'0 0.0
2017-May-17 20:31N 35°27' E 139°40'0 0.0
2017-May-17 20:01N 35°27' E 139°40'0 0.0
2017-May-17 19:31N 35°27' E 139°40'0 0.0
2017-May-17 19:01N 35°27' E 139°40'0 0.0
2017-May-17 18:31N 35°27' E 139°40'0 0.0
2017-May-17 18:00N 35°27' E 139°40'0 0.0
2017-May-17 17:31N 35°27' E 139°40'0 0.0
2017-May-17 17:01N 35°27' E 139°40'0 0.0
2017-May-17 16:30N 35°27' E 139°40'0 0.0
2017-May-17 16:01N 35°27' E 139°40'0 0.0
2017-May-17 15:31N 35°27' E 139°40'0 0.0
2017-May-17 15:01N 35°27' E 139°40'0 0.0
2017-May-17 14:00N 35°27' E 139°40'0 0.0
2017-May-17 13:31N 35°27' E 139°40'0 0.0
2017-May-17 13:01N 35°27' E 139°40'0 0.0
2017-May-17 12:31N 35°27' E 139°40'0 0.0
2017-May-17 12:01N 35°27' E 139°40'0 0.0
2017-May-17 11:31N 35°27' E 139°40'0 0.0
2017-May-17 11:01N 35°27' E 139°40'0 0.0
2017-May-17 10:31N 35°27' E 139°40'0 0.0
2017-May-17 10:01N 35°27' E 139°40'0 0.0
2017-May-17 09:31N 35°27' E 139°40'0 0.0
2017-May-17 09:00N 35°27' E 139°40'0 0.0
2017-May-17 08:31N 35°27' E 139°40'0 0.0
2017-May-17 08:01N 35°27' E 139°40'0 0.0
2017-May-17 07:30N 35°27' E 139°40'0 0.0
2017-May-17 07:01N 35°27' E 139°40'0 0.0
2017-May-17 06:31N 35°27' E 139°40'0 0.0
2017-May-17 06:01N 35°27' E 139°40'0 0.0
2017-May-17 05:31N 35°27' E 139°40'0 0.0
2017-May-17 05:01N 35°27' E 139°40'0 0.0
2017-May-17 04:31N 35°27' E 139°40'0 0.0
2017-May-17 04:00N 35°27' E 139°40'0 0.0
2017-May-17 03:31N 35°27' E 139°40'0 0.0
2017-May-17 03:01N 35°27' E 139°40'0 0.0
2017-May-17 02:31N 35°27' E 139°40'0 0.0
2017-May-17 02:01N 35°27' E 139°40'0 0.0
2017-May-17 01:31N 35°27' E 139°40'0 0.0
2017-May-17 01:01N 35°27' E 139°40'0 0.0
2017-May-17 00:31N 35°27' E 139°40'0 0.3
2017-May-17 00:01N 35°27' E 139°40'1 2.9
2017-May-16 23:31N 35°28' E 139°41'0 0.5
2017-May-16 23:01N 35°28' E 139°42'1 1.0
2017-May-16 22:30N 35°27' E 139°42'1 1.4
2017-May-16 22:01N 35°28' E 139°42'1 2.8
2017-May-16 21:31N 35°27' E 139°43'2 3.4
2017-May-16 21:01N 35°27' E 139°41'1 2.4
2017-May-16 20:31N 35°27' E 139°40'0 0.0
2017-May-16 20:01N 35°27' E 139°40'0 0.0
2017-May-16 19:31N 35°27' E 139°40'0 0.0
2017-May-16 19:01N 35°27' E 139°40'0 0.0
2017-May-16 18:30N 35°27' E 139°40'0 0.0
2017-May-16 18:01N 35°27' E 139°40'0 0.0
2017-May-16 17:31N 35°27' E 139°40'0 0.0
2017-May-16 17:01N 35°27' E 139°40'0 0.0
2017-May-16 16:31N 35°27' E 139°40'0 0.0
2017-May-16 16:01N 35°27' E 139°40'0 0.0
2017-May-16 15:30N 35°27' E 139°40'0 0.0
2017-May-16 15:01N 35°27' E 139°40'0 0.0
2017-May-16 14:31N 35°27' E 139°40'0 0.0
2017-May-16 13:31N 35°27' E 139°40'0 0.0
2017-May-16 13:01N 35°27' E 139°40'0 0.0
2017-May-16 12:31N 35°27' E 139°40'0 0.0
2017-May-16 12:01N 35°27' E 139°40'0 0.0
2017-May-16 11:31N 35°27' E 139°40'0 0.0
2017-May-16 11:01N 35°27' E 139°40'0 0.0
2017-May-16 10:31N 35°27' E 139°40'0 0.0
2017-May-16 10:01N 35°27' E 139°40'0 0.0
2017-May-16 09:31N 35°27' E 139°40'0 0.0
2017-May-16 09:00N 35°27' E 139°40'0 0.0
2017-May-16 08:31N 35°27' E 139°40'0 0.0
2017-May-16 08:01N 35°27' E 139°40'0 0.0
2017-May-16 07:31N 35°27' E 139°40'2 3.2
2017-May-16 07:01N 35°27' E 139°41'2 5.0
2017-May-16 06:30N 35°24' E 139°41'0 0.2
2017-May-16 06:01N 35°24' E 139°41'2 4.2
2017-May-16 05:30N 35°26' E 139°42'2 3.8
2017-May-16 05:01N 35°28' E 139°40'0 0.0
2017-May-16 04:31N 35°28' E 139°40'0 0.0
2017-May-16 04:00N 35°28' E 139°40'0 0.0
2017-May-16 03:31N 35°28' E 139°40'0 0.0
2017-May-16 03:01N 35°28' E 139°40'0 0.0
2017-May-16 02:31N 35°28' E 139°40'0 0.0
2017-May-16 02:01N 35°28' E 139°40'0 0.0
2017-May-16 01:31N 35°28' E 139°40'1 2.0
2017-May-16 01:01N 35°27' E 139°39'0 0.0
2017-May-16 00:31N 35°27' E 139°39'0 0.4
2017-May-16 00:01N 35°27' E 139°39'1 2.9
2017-May-15 23:31N 35°27' E 139°41'0 0.8
2017-May-15 23:01N 35°27' E 139°41'2 4.4
2017-May-15 22:31N 35°25' E 139°43'1 1.8
2017-May-15 22:00N 35°26' E 139°42'3 5.1
2017-May-15 21:31N 35°27' E 139°40'0 0.0
2017-May-15 21:01N 35°27' E 139°40'0 0.0
2017-May-15 20:31N 35°27' E 139°40'0 0.0
2017-May-15 20:01N 35°27' E 139°40'0 0.0
2017-May-15 19:31N 35°27' E 139°40'0 0.0
2017-May-15 19:01N 35°27' E 139°40'0 0.0
2017-May-15 18:31N 35°27' E 139°40'0 0.1
2017-May-15 18:01N 35°27' E 139°40'0 0.1
2017-May-15 17:31N 35°27' E 139°40'0 0.0
2017-May-15 17:01N 35°27' E 139°40'0 0.0
2017-May-15 16:31N 35°27' E 139°40'0 0.0
2017-May-15 16:01N 35°27' E 139°40'0 0.0
2017-May-15 15:31N 35°27' E 139°40'0 0.0
2017-May-15 15:01N 35°27' E 139°40'0 0.0
2017-May-15 14:01N 35°27' E 139°40'0 0.0
2017-May-15 13:31N 35°27' E 139°40'0 0.0
2017-May-15 13:00N 35°27' E 139°40'0 0.0
2017-May-15 12:31N 35°27' E 139°40'0 0.0
2017-May-15 12:01N 35°27' E 139°40'0 0.1
2017-May-15 11:30N 35°27' E 139°40'0 0.1
2017-May-15 11:01N 35°27' E 139°40'0 0.0
2017-May-15 10:31N 35°27' E 139°40'0 0.1
2017-May-15 10:01N 35°27' E 139°40'0 0.0
2017-May-15 09:31N 35°27' E 139°40'0 0.0
2017-May-15 09:01N 35°27' E 139°40'0 0.1
2017-May-15 08:31N 35°27' E 139°40'  
Track history (hours):
 
Tides and Currents Weather Stations Pressure Air Temp Water Temp Dewpoint Dewpoint Depression Visibility Wind Speed Wind Dir Waves Ship Positions

Kyoto Maru

Last reported at 2017-May-25 08:30 UTC. Time now 2017-May-25 08:50 UTC.
Position N 35°27' E 139°40'.

Length 34 m; draft 3.8 m.

Type: Tug. MMSI: 431002219.

Date/timePositionNaut miles runAvg speedWind from/ knotsBaromVisibWave heightAir tempDewpointWater temp
2017-May-25 08:30N 35°27' E 139°40'0 0.0
2017-May-25 08:00N 35°27' E 139°40'0 0.0
2017-May-25 07:30N 35°27' E 139°40'0 0.0
2017-May-25 07:00N 35°27' E 139°40'0 0.0
2017-May-25 06:30N 35°27' E 139°40'0 0.0
2017-May-25 06:00N 35°27' E 139°40'0 0.0
2017-May-25 05:30N 35°27' E 139°40'0 0.0
2017-May-25 05:00N 35°27' E 139°40'0 0.0
2017-May-25 04:30N 35°27' E 139°40'0 0.0
2017-May-25 04:00N 35°27' E 139°40'0 0.0
2017-May-25 03:30N 35°27' E 139°40'0 0.0
2017-May-25 03:00N 35°27' E 139°40'0 0.0
2017-May-25 02:30N 35°27' E 139°40'1 3.0
2017-May-25 02:00N 35°27' E 139°41'3 5.7
2017-May-25 01:30N 35°24' E 139°40'2 3.1
2017-May-25 01:00N 35°24' E 139°38'3 5.5
2017-May-25 00:30N 35°23' E 139°41'0 0.9
2017-May-25 00:00N 35°23' E 139°41'0 0.0
2017-May-24 23:30N 35°23' E 139°41'0 0.0
2017-May-24 23:00N 35°23' E 139°41'0 0.0
2017-May-24 22:30N 35°23' E 139°41'0 0.0
2017-May-24 22:00N 35°23' E 139°41'1 2.2
2017-May-24 21:30N 35°24' E 139°40'0 0.7
2017-May-24 21:00N 35°24' E 139°41'0 0.6
2017-May-24 20:30N 35°24' E 139°41'4 7.1
2017-May-24 20:00N 35°27' E 139°40'1 1.4
2017-May-24 19:30N 35°27' E 139°40'0 0.0
2017-May-24 19:00N 35°27' E 139°40'0 0.0
2017-May-24 18:30N 35°27' E 139°40'0 0.0
2017-May-24 18:00N 35°27' E 139°40'0 0.0
2017-May-24 17:30N 35°27' E 139°40'0 0.0
2017-May-24 17:00N 35°27' E 139°40'0 0.0
2017-May-24 16:30N 35°27' E 139°40'0 0.0
2017-May-24 16:00N 35°27' E 139°40'0 0.0
2017-May-24 15:30N 35°27' E 139°40'0 0.0
2017-May-24 15:00N 35°27' E 139°40'0 0.0
2017-May-24 14:30N 35°27' E 139°40'0 0.0
2017-May-24 13:30N 35°27' E 139°40'0 0.0
2017-May-24 13:00N 35°27' E 139°40'0 0.0
2017-May-24 12:30N 35°27' E 139°40'0 0.0
2017-May-24 12:00N 35°27' E 139°40'0 0.0
2017-May-24 11:30N 35°27' E 139°40'0 0.0
2017-May-24 11:00N 35°27' E 139°40'0 0.0
2017-May-24 10:30N 35°27' E 139°40'0 0.0
2017-May-24 10:00N 35°27' E 139°40'0 0.0
2017-May-24 09:30N 35°27' E 139°40'0 0.0
2017-May-24 09:00N 35°27' E 139°40'0 0.0
2017-May-24 08:30N 35°27' E 139°40'0 0.0
2017-May-24 08:00N 35°27' E 139°40'0 0.0
2017-May-24 07:30N 35°27' E 139°40'0 0.0
2017-May-24 07:00N 35°27' E 139°40'0 0.0
2017-May-24 06:30N 35°27' E 139°40'1 2.3
2017-May-24 06:00N 35°27' E 139°41'1 1.1
2017-May-24 05:30N 35°28' E 139°40'0 0.0
2017-May-24 05:00N 35°28' E 139°40'0 0.0
2017-May-24 04:30N 35°28' E 139°40'0 0.0
2017-May-24 04:00N 35°28' E 139°40'0 0.0
2017-May-24 03:30N 35°28' E 139°40'0 0.0
2017-May-24 03:00N 35°28' E 139°40'0 0.0
2017-May-24 02:30N 35°28' E 139°40'0 0.0
2017-May-24 02:00N 35°28' E 139°40'0 0.0
2017-May-24 01:30N 35°28' E 139°40'1 1.1
2017-May-24 01:00N 35°28' E 139°41'4 8.5
2017-May-24 00:30N 35°30' E 139°45'1 2.3
2017-May-24 00:00N 35°31' E 139°46'2 4.8
2017-May-23 23:30N 35°30' E 139°44'3 5.6
2017-May-23 23:00N 35°27' E 139°44'1 1.4
2017-May-23 22:30N 35°27' E 139°43'3 5.4
2017-May-23 22:00N 35°27' E 139°40'0 0.7
2017-May-23 21:30N 35°27' E 139°40'0 0.0
2017-May-23 21:00N 35°27' E 139°40'0 0.0
2017-May-23 20:30N 35°27' E 139°40'0 0.0
2017-May-23 20:00N 35°27' E 139°40'0 0.0
2017-May-23 19:30N 35°27' E 139°40'0 0.0
2017-May-23 19:00N 35°27' E 139°40'0 0.0
2017-May-23 18:30N 35°27' E 139°40'0 0.0
2017-May-23 18:00N 35°27' E 139°40'0 0.0
2017-May-23 17:30N 35°27' E 139°40'0 0.0
2017-May-23 17:00N 35°27' E 139°40'0 0.0
2017-May-23 16:30N 35°27' E 139°40'0 0.0
2017-May-23 16:00N 35°27' E 139°40'0 0.0
2017-May-23 15:30N 35°27' E 139°40'0 0.0
2017-May-23 15:00N 35°27' E 139°40'0 0.0
2017-May-23 14:30N 35°27' E 139°40'0 0.0
2017-May-23 13:30N 35°27' E 139°40'0 0.0
2017-May-23 13:00N 35°27' E 139°40'0 0.0
2017-May-23 12:30N 35°27' E 139°40'0 0.0
2017-May-23 12:00N 35°27' E 139°40'0 0.0
2017-May-23 11:30N 35°27' E 139°40'0 0.0
2017-May-23 11:00N 35°27' E 139°40'0 0.0
2017-May-23 10:30N 35°27' E 139°40'0 0.0
2017-May-23 10:00N 35°27' E 139°40'0 0.0
2017-May-23 09:30N 35°27' E 139°40'0 0.0
2017-May-23 09:00N 35°27' E 139°40'0 0.0
2017-May-23 08:30N 35°27' E 139°40'0 0.0
2017-May-23 08:00N 35°27' E 139°40'0 0.1
2017-May-23 07:30N 35°27' E 139°40'4 7.2
2017-May-23 07:00N 35°24' E 139°42'1 1.7
2017-May-23 06:30N 35°24' E 139°41'0 0.3
2017-May-23 06:00N 35°24' E 139°41'1 2.0
2017-May-23 05:30N 35°24' E 139°42'3 7.0
2017-May-23 05:00N 35°27' E 139°40'0 0.5
2017-May-23 04:31N 35°27' E 139°40'0 0.0
2017-May-23 04:01N 35°27' E 139°40'0 0.0
2017-May-23 03:31N 35°27' E 139°40'0 0.0
2017-May-23 03:00N 35°27' E 139°40'0 0.0
2017-May-23 02:30N 35°27' E 139°40'0 0.0
2017-May-23 02:00N 35°27' E 139°40'0 0.0
2017-May-23 01:31N 35°27' E 139°40'0 0.0
2017-May-23 01:00N 35°27' E 139°40'0 0.0
2017-May-23 00:31N 35°27' E 139°40'0 0.0
2017-May-23 00:00N 35°27' E 139°40'0 0.0
2017-May-22 23:31N 35°27' E 139°40'0 0.2
2017-May-22 23:01N 35°27' E 139°40'2 4.0
2017-May-22 22:31N 35°25' E 139°41'0 0.7
2017-May-22 22:00N 35°25' E 139°41'1 2.1
2017-May-22 21:30N 35°25' E 139°42'1 3.0
2017-May-22 21:00N 35°27' E 139°42'1 1.3
2017-May-22 20:31N 35°27' E 139°41'1 2.6
2017-May-22 20:00N 35°27' E 139°40'0 0.0
2017-May-22 19:31N 35°27' E 139°40'0 0.1
2017-May-22 19:01N 35°27' E 139°40'0 0.0
2017-May-22 18:30N 35°27' E 139°40'0 0.1
2017-May-22 18:01N 35°27' E 139°40'0 0.0
2017-May-22 17:31N 35°27' E 139°40'0 0.0
2017-May-22 17:01N 35°27' E 139°40'0 0.1
2017-May-22 16:31N 35°27' E 139°40'0 0.1
2017-May-22 16:01N 35°27' E 139°40'0 0.0
2017-May-22 15:31N 35°27' E 139°40'0 0.0
2017-May-22 15:01N 35°27' E 139°40'0 0.0
2017-May-22 14:01N 35°27' E 139°40'0 0.0
2017-May-22 13:31N 35°27' E 139°40'0 0.0
2017-May-22 13:00N 35°27' E 139°40'0 0.1
2017-May-22 12:31N 35°27' E 139°40'0 0.1
2017-May-22 12:01N 35°27' E 139°40'0 0.0
2017-May-22 11:31N 35°27' E 139°40'0 0.1
2017-May-22 11:01N 35°27' E 139°40'0 0.0
2017-May-22 10:30N 35°27' E 139°40'0 0.0
2017-May-22 10:01N 35°27' E 139°40'0 0.1
2017-May-22 09:31N 35°27' E 139°40'0 0.0
2017-May-22 09:01N 35°27' E 139°40'2 4.1
2017-May-22 08:31N 35°28' E 139°42'2 4.1
2017-May-22 08:01N 35°27' E 139°40'0 0.0
2017-May-22 07:31N 35°27' E 139°40'0 0.1
2017-May-22 07:01N 35°27' E 139°39'5 9.3
2017-May-22 06:31N 35°30' E 139°44'2 4.1
2017-May-22 06:01N 35°31' E 139°46'1 1.3
2017-May-22 05:31N 35°31' E 139°46'2 3.8
2017-May-22 05:01N 35°29' E 139°47'0 0.0
2017-May-22 04:31N 35°29' E 139°47'2 3.4
2017-May-22 04:01N 35°29' E 139°45'1 1.6
2017-May-22 03:30N 35°28' E 139°44'0 0.0
2017-May-22 03:01N 35°28' E 139°44'0 0.5
2017-May-22 02:30N 35°28' E 139°44'2 4.5
2017-May-22 02:00N 35°26' E 139°46'3 5.6
2017-May-22 01:31N 35°27' E 139°43'0 0.0
2017-May-22 01:00N 35°27' E 139°43'0 0.0
2017-May-22 00:30N 35°27' E 139°43'0 0.0
2017-May-22 00:01N 35°27' E 139°43'1 2.3
2017-May-21 23:31N 35°28' E 139°42'1 2.1
2017-May-21 23:01N 35°29' E 139°42'3 5.2
2017-May-21 22:31N 35°27' E 139°43'3 5.6
2017-May-21 22:00N 35°27' E 139°40'0 0.5
2017-May-21 21:31N 35°27' E 139°40'0 0.0
2017-May-21 21:01N 35°27' E 139°40'0 0.0
2017-May-21 20:31N 35°27' E 139°40'0 0.0
2017-May-21 20:01N 35°27' E 139°40'0 0.0
2017-May-21 19:31N 35°27' E 139°40'0 0.0
2017-May-21 19:01N 35°27' E 139°40'0 0.0
2017-May-21 18:31N 35°27' E 139°40'0 0.0
2017-May-21 18:01N 35°27' E 139°40'0 0.0
2017-May-21 17:31N 35°27' E 139°40'0 0.0
2017-May-21 17:00N 35°27' E 139°40'0 0.0
2017-May-21 16:31N 35°27' E 139°40'0 0.0
2017-May-21 16:01N 35°27' E 139°40'0 0.0
2017-May-21 15:31N 35°27' E 139°40'0 0.0
2017-May-21 15:01N 35°27' E 139°40'0 0.0
2017-May-21 14:31N 35°27' E 139°40'0 0.0
2017-May-21 13:31N 35°27' E 139°40'0 0.0
2017-May-21 13:01N 35°27' E 139°40'0 0.0
2017-May-21 12:31N 35°27' E 139°40'0 0.0
2017-May-21 12:01N 35°27' E 139°40'0 0.0
2017-May-21 11:31N 35°27' E 139°40'0 0.0
2017-May-21 11:01N 35°27' E 139°40'0 0.0
2017-May-21 10:30N 35°27' E 139°40'0 0.0
2017-May-21 10:01N 35°27' E 139°40'0 0.0
2017-May-21 09:31N 35°27' E 139°40'0 0.0
2017-May-21 09:00N 35°27' E 139°40'0 0.0
2017-May-21 08:31N 35°27' E 139°40'0 0.0
2017-May-21 08:01N 35°27' E 139°40'0 0.0
2017-May-21 07:31N 35°27' E 139°40'0 0.0
2017-May-21 07:01N 35°27' E 139°40'0 0.0
2017-May-21 06:31N 35°27' E 139°40'0 0.0
2017-May-21 06:01N 35°27' E 139°40'0 0.0
2017-May-21 05:31N 35°27' E 139°40'0 0.0
2017-May-21 05:01N 35°27' E 139°40'0 0.0
2017-May-21 04:31N 35°27' E 139°40'0 0.0
2017-May-21 04:01N 35°27' E 139°40'0 0.0
2017-May-21 03:31N 35°27' E 139°40'0 0.0
2017-May-21 03:00N 35°27' E 139°40'0 0.0
2017-May-21 02:31N 35°27' E 139°40'0 0.0
2017-May-21 02:01N 35°27' E 139°40'0 0.0
2017-May-21 01:30N 35°27' E 139°40'0 0.0
2017-May-21 01:01N 35°27' E 139°40'0 0.0
2017-May-21 00:31N 35°27' E 139°40'0 0.0
2017-May-21 00:01N 35°27' E 139°40'0 0.0
2017-May-20 23:31N 35°27' E 139°40'0 0.0
2017-May-20 23:01N 35°27' E 139°40'0 0.0
2017-May-20 22:30N 35°27' E 139°40'0 0.0
2017-May-20 22:01N 35°27' E 139°40'0 0.0
2017-May-20 21:31N 35°27' E 139°40'0 0.0
2017-May-20 21:01N 35°27' E 139°40'0 0.0
2017-May-20 20:31N 35°27' E 139°40'0 0.0
2017-May-20 20:01N 35°27' E 139°40'0 0.0
2017-May-20 19:31N 35°27' E 139°40'0 0.0
2017-May-20 19:01N 35°27' E 139°40'0 0.0
2017-May-20 18:31N 35°27' E 139°40'0 0.0
2017-May-20 18:01N 35°27' E 139°40'0 0.0
2017-May-20 17:30N 35°27' E 139°40'0 0.0
2017-May-20 17:01N 35°27' E 139°40'0 0.0
2017-May-20 16:31N 35°27' E 139°40'0 0.0
2017-May-20 16:01N 35°27' E 139°40'0 0.0
2017-May-20 15:31N 35°27' E 139°40'0 0.0
2017-May-20 15:01N 35°27' E 139°40'0 0.0
2017-May-20 14:01N 35°27' E 139°40'0 0.0
2017-May-20 13:31N 35°27' E 139°40'0 0.0
2017-May-20 13:01N 35°27' E 139°40'0 0.0
2017-May-20 12:31N 35°27' E 139°40'0 0.0
2017-May-20 12:00N 35°27' E 139°40'0 0.0
2017-May-20 11:31N 35°27' E 139°40'0 0.0
2017-May-20 11:01N 35°27' E 139°40'0 0.0
2017-May-20 10:31N 35°27' E 139°40'0 0.0
2017-May-20 10:01N 35°27' E 139°40'0 0.0
2017-May-20 09:31N 35°27' E 139°40'0 0.0
2017-May-20 09:01N 35°27' E 139°40'0 0.0
2017-May-20 08:31N 35°27' E 139°40'0 0.0
2017-May-20 08:01N 35°27' E 139°40'0 0.0
2017-May-20 07:30N 35°27' E 139°40'1 1.9
2017-May-20 07:01N 35°27' E 139°41'1 2.4
2017-May-20 06:31N 35°27' E 139°42'0 0.0
2017-May-20 06:01N 35°27' E 139°42'0 0.0
2017-May-20 05:30N 35°27' E 139°42'0 0.0
2017-May-20 05:01N 35°27' E 139°42'0 0.0
2017-May-20 04:31N 35°27' E 139°42'1 3.0
2017-May-20 04:01N 35°28' E 139°44'4 8.7
2017-May-20 03:31N 35°29' E 139°49'5 9.0
2017-May-20 03:01N 35°30' E 139°54'1 0.3
2017-May-19 23:13N 35°29' E 139°55'310.7
2017-May-19 22:59N 35°28' E 139°52'510.7
2017-May-19 22:30N 35°26' E 139°46'5 9.5
2017-May-19 22:01N 35°27' E 139°41'1 2.1
2017-May-19 21:31N 35°27' E 139°40'0 0.0
2017-May-19 21:01N 35°27' E 139°40'0 0.0
2017-May-19 20:31N 35°27' E 139°40'0 0.0
2017-May-19 20:01N 35°27' E 139°40'0 0.0
2017-May-19 19:31N 35°27' E 139°40'0 0.0
2017-May-19 19:00N 35°27' E 139°40'0 0.0
2017-May-19 18:31N 35°27' E 139°40'0 0.0
2017-May-19 18:01N 35°27' E 139°40'0 0.0
2017-May-19 17:31N 35°27' E 139°40'0 0.0
2017-May-19 17:01N 35°27' E 139°40'0 0.0
2017-May-19 16:31N 35°27' E 139°40'0 0.0
2017-May-19 16:01N 35°27' E 139°40'0 0.0
2017-May-19 15:31N 35°27' E 139°40'0 0.0
2017-May-19 15:01N 35°27' E 139°40'0 0.0
2017-May-19 14:01N 35°27' E 139°40'0 0.0
2017-May-19 13:31N 35°27' E 139°40'0 0.0
2017-May-19 13:01N 35°27' E 139°40'0 0.0
2017-May-19 12:31N 35°27' E 139°40'0 0.0
2017-May-19 12:00N 35°27' E 139°40'0 0.0
2017-May-19 11:31N 35°27' E 139°40'0 0.0
2017-May-19 11:01N 35°27' E 139°40'0 0.0
2017-May-19 10:31N 35°27' E 139°40'0 0.0
2017-May-19 10:01N 35°27' E 139°40'0 0.0
2017-May-19 09:30N 35°27' E 139°40'0 0.0
2017-May-19 09:01N 35°27' E 139°40'0 0.0
2017-May-19 08:31N 35°27' E 139°40'0 0.0
2017-May-19 08:01N 35°27' E 139°40'0 0.0
2017-May-19 07:31N 35°27' E 139°40'0 0.0
2017-May-19 07:01N 35°27' E 139°40'0 0.0
2017-May-19 06:30N 35°27' E 139°40'0 0.0
2017-May-19 06:01N 35°27' E 139°40'0 0.0
2017-May-19 05:31N 35°27' E 139°40'0 0.0
2017-May-19 05:01N 35°27' E 139°40'0 0.0
2017-May-19 04:31N 35°27' E 139°40'0 0.0
2017-May-19 04:01N 35°27' E 139°40'0 0.0
2017-May-19 03:30N 35°27' E 139°40'0 0.0
2017-May-19 03:01N 35°27' E 139°40'0 0.0
2017-May-19 02:31N 35°27' E 139°40'0 0.0
2017-May-19 02:01N 35°27' E 139°40'0 0.0
2017-May-19 01:31N 35°27' E 139°40'0 0.0
2017-May-19 01:01N 35°27' E 139°40'0 0.0
2017-May-19 00:31N 35°27' E 139°40'0 0.0
2017-May-19 00:01N 35°27' E 139°40'0 0.0
2017-May-18 23:31N 35°27' E 139°40'0 0.0
2017-May-18 23:01N 35°27' E 139°40'0 0.0
2017-May-18 22:31N 35°27' E 139°40'0 0.0
2017-May-18 22:01N 35°27' E 139°40'1 1.1
2017-May-18 21:31N 35°27' E 139°39'3 6.4
2017-May-18 21:00N 35°25' E 139°42'1 2.3
2017-May-18 20:31N 35°24' E 139°41'0 0.1
2017-May-18 20:01N 35°24' E 139°41'0 0.0
2017-May-18 19:31N 35°24' E 139°41'3 5.1
2017-May-18 19:01N 35°27' E 139°41'1 2.9
2017-May-18 18:31N 35°27' E 139°40'1 2.0
2017-May-18 18:01N 35°27' E 139°41'0 0.4
2017-May-18 17:31N 35°27' E 139°41'1 2.0
2017-May-18 17:01N 35°28' E 139°40'0 0.0
2017-May-18 16:31N 35°28' E 139°40'2 4.8
2017-May-18 16:01N 35°25' E 139°42'2 3.1
2017-May-18 15:31N 35°24' E 139°41'0 0.2
2017-May-18 15:01N 35°24' E 139°41'1 1.1
2017-May-18 14:31N 35°24' E 139°40'1 1.0
2017-May-18 13:31N 35°23' E 139°42'4 8.1
2017-May-18 13:01N 35°27' E 139°40'0 0.1
2017-May-18 12:31N 35°27' E 139°39'0 0.0
2017-May-18 12:01N 35°27' E 139°39'0 0.0
2017-May-18 11:31N 35°27' E 139°39'0 0.0
2017-May-18 11:01N 35°27' E 139°39'2 3.8
2017-May-18 10:31N 35°26' E 139°42'2 4.5
2017-May-18 10:01N 35°24' E 139°41'0 0.1
2017-May-18 09:31N 35°24' E 139°41'1 2.1
2017-May-18 09:01N 35°23' E 139°41'0 0.8
2017-May-18 08:31N 35°23' E 139°41'4 7.5
2017-May-18 08:01N 35°26' E 139°42'2 3.5
2017-May-18 07:31N 35°27' E 139°40'0 0.0
2017-May-18 07:01N 35°27' E 139°40'0 0.0
2017-May-18 06:31N 35°27' E 139°40'0 0.0
2017-May-18 06:01N 35°27' E 139°40'0 0.0
2017-May-18 05:31N 35°27' E 139°40'0 0.0
2017-May-18 05:01N 35°27' E 139°40'0 0.0
2017-May-18 04:31N 35°27' E 139°40'0 0.0
2017-May-18 04:01N 35°27' E 139°40'0 0.0
2017-May-18 03:31N 35°27' E 139°40'0 0.0
2017-May-18 03:01N 35°27' E 139°40'0 0.0
2017-May-18 02:31N 35°27' E 139°40'0 0.0
2017-May-18 02:01N 35°27' E 139°40'0 0.0
2017-May-18 01:31N 35°27' E 139°40'0 0.0
2017-May-18 01:01N 35°27' E 139°40'0 0.0
2017-May-18 00:31N 35°27' E 139°40'0 0.0
2017-May-18 00:01N 35°27' E 139°40'0 0.0
2017-May-17 23:30N 35°27' E 139°40'0 0.0
2017-May-17 23:01N 35°27' E 139°40'0 0.0
2017-May-17 22:31N 35°27' E 139°40'0 0.0
2017-May-17 22:01N 35°27' E 139°40'0 0.0
2017-May-17 21:31N 35°27' E 139°40'0 0.0
2017-May-17 21:00N 35°27' E 139°40'0 0.0
2017-May-17 20:31N 35°27' E 139°40'0 0.0
2017-May-17 20:01N 35°27' E 139°40'0 0.0
2017-May-17 19:31N 35°27' E 139°40'0 0.0
2017-May-17 19:01N 35°27' E 139°40'0 0.0
2017-May-17 18:31N 35°27' E 139°40'0 0.0
2017-May-17 18:00N 35°27' E 139°40'0 0.0
2017-May-17 17:31N 35°27' E 139°40'0 0.0
2017-May-17 17:01N 35°27' E 139°40'0 0.0
2017-May-17 16:30N 35°27' E 139°40'0 0.0
2017-May-17 16:01N 35°27' E 139°40'0 0.0
2017-May-17 15:31N 35°27' E 139°40'0 0.0
2017-May-17 15:01N 35°27' E 139°40'0 0.0
2017-May-17 14:00N 35°27' E 139°40'0 0.0
2017-May-17 13:31N 35°27' E 139°40'0 0.0
2017-May-17 13:01N 35°27' E 139°40'0 0.0
2017-May-17 12:31N 35°27' E 139°40'0 0.0
2017-May-17 12:01N 35°27' E 139°40'0 0.0
2017-May-17 11:31N 35°27' E 139°40'0 0.0
2017-May-17 11:01N 35°27' E 139°40'0 0.0
2017-May-17 10:31N 35°27' E 139°40'0 0.0
2017-May-17 10:01N 35°27' E 139°40'0 0.0
2017-May-17 09:31N 35°27' E 139°40'0 0.0
2017-May-17 09:00N 35°27' E 139°40'0 0.0
2017-May-17 08:31N 35°27' E 139°40'0 0.0
2017-May-17 08:01N 35°27' E 139°40'0 0.0
2017-May-17 07:30N 35°27' E 139°40'0 0.0
2017-May-17 07:01N 35°27' E 139°40'0 0.0
2017-May-17 06:31N 35°27' E 139°40'0 0.0
2017-May-17 06:01N 35°27' E 139°40'0 0.0
2017-May-17 05:31N 35°27' E 139°40'0 0.0
2017-May-17 05:01N 35°27' E 139°40'0 0.0
2017-May-17 04:31N 35°27' E 139°40'0 0.0
2017-May-17 04:00N 35°27' E 139°40'0 0.0
2017-May-17 03:31N 35°27' E 139°40'0 0.0
2017-May-17 03:01N 35°27' E 139°40'0 0.0
2017-May-17 02:31N 35°27' E 139°40'0 0.0
2017-May-17 02:01N 35°27' E 139°40'0 0.0
2017-May-17 01:31N 35°27' E 139°40'0 0.0
2017-May-17 01:01N 35°27' E 139°40'0 0.0
2017-May-17 00:31N 35°27' E 139°40'0 0.3
2017-May-17 00:01N 35°27' E 139°40'1 2.9
2017-May-16 23:31N 35°28' E 139°41'0 0.5
2017-May-16 23:01N 35°28' E 139°42'1 1.0
2017-May-16 22:30N 35°27' E 139°42'1 1.4
2017-May-16 22:01N 35°28' E 139°42'1 2.8
2017-May-16 21:31N 35°27' E 139°43'2 3.4
2017-May-16 21:01N 35°27' E 139°41'1 2.4
2017-May-16 20:31N 35°27' E 139°40'0 0.0
2017-May-16 20:01N 35°27' E 139°40'0 0.0
2017-May-16 19:31N 35°27' E 139°40'0 0.0
2017-May-16 19:01N 35°27' E 139°40'0 0.0
2017-May-16 18:30N 35°27' E 139°40'0 0.0
2017-May-16 18:01N 35°27' E 139°40'0 0.0
2017-May-16 17:31N 35°27' E 139°40'0 0.0
2017-May-16 17:01N 35°27' E 139°40'0 0.0
2017-May-16 16:31N 35°27' E 139°40'0 0.0
2017-May-16 16:01N 35°27' E 139°40'0 0.0
2017-May-16 15:30N 35°27' E 139°40'0 0.0
2017-May-16 15:01N 35°27' E 139°40'0 0.0
2017-May-16 14:31N 35°27' E 139°40'0 0.0
2017-May-16 13:31N 35°27' E 139°40'0 0.0
2017-May-16 13:01N 35°27' E 139°40'0 0.0
2017-May-16 12:31N 35°27' E 139°40'0 0.0
2017-May-16 12:01N 35°27' E 139°40'0 0.0
2017-May-16 11:31N 35°27' E 139°40'0 0.0
2017-May-16 11:01N 35°27' E 139°40'0 0.0
2017-May-16 10:31N 35°27' E 139°40'0 0.0
2017-May-16 10:01N 35°27' E 139°40'0 0.0
2017-May-16 09:31N 35°27' E 139°40'0 0.0
2017-May-16 09:00N 35°27' E 139°40'0 0.0
2017-May-16 08:31N 35°27' E 139°40'0 0.0
2017-May-16 08:01N 35°27' E 139°40'0 0.0
2017-May-16 07:31N 35°27' E 139°40'2 3.2
2017-May-16 07:01N 35°27' E 139°41'2 5.0
2017-May-16 06:30N 35°24' E 139°41'0 0.2
2017-May-16 06:01N 35°24' E 139°41'2 4.2
2017-May-16 05:30N 35°26' E 139°42'2 3.8
2017-May-16 05:01N 35°28' E 139°40'0 0.0
2017-May-16 04:31N 35°28' E 139°40'0 0.0
2017-May-16 04:00N 35°28' E 139°40'0 0.0
2017-May-16 03:31N 35°28' E 139°40'0 0.0
2017-May-16 03:01N 35°28' E 139°40'0 0.0
2017-May-16 02:31N 35°28' E 139°40'0 0.0
2017-May-16 02:01N 35°28' E 139°40'0 0.0
2017-May-16 01:31N 35°28' E 139°40'1 2.0
2017-May-16 01:01N 35°27' E 139°39'0 0.0
2017-May-16 00:31N 35°27' E 139°39'0 0.4
2017-May-16 00:01N 35°27' E 139°39'1 2.9
2017-May-15 23:31N 35°27' E 139°41'0 0.8
2017-May-15 23:01N 35°27' E 139°41'2 4.4
2017-May-15 22:31N 35°25' E 139°43'1 1.8
2017-May-15 22:00N 35°26' E 139°42'3 5.1
2017-May-15 21:31N 35°27' E 139°40'0 0.0
2017-May-15 21:01N 35°27' E 139°40'0 0.0
2017-May-15 20:31N 35°27' E 139°40'0 0.0
2017-May-15 20:01N 35°27' E 139°40'0 0.0
2017-May-15 19:31N 35°27' E 139°40'0 0.0
2017-May-15 19:01N 35°27' E 139°40'0 0.0
2017-May-15 18:31N 35°27' E 139°40'0 0.1
2017-May-15 18:01N 35°27' E 139°40'0 0.1
2017-May-15 17:31N 35°27' E 139°40'0 0.0
2017-May-15 17:01N 35°27' E 139°40'0 0.0
2017-May-15 16:31N 35°27' E 139°40'0 0.0
2017-May-15 16:01N 35°27' E 139°40'0 0.0
2017-May-15 15:31N 35°27' E 139°40'0 0.0
2017-May-15 15:01N 35°27' E 139°40'0 0.0
2017-May-15 14:01N 35°27' E 139°40'0 0.0
2017-May-15 13:31N 35°27' E 139°40'0 0.0
2017-May-15 13:00N 35°27' E 139°40'0 0.0
2017-May-15 12:31N 35°27' E 139°40'0 0.0
2017-May-15 12:01N 35°27' E 139°40'0 0.1
2017-May-15 11:30N 35°27' E 139°40'0 0.1
2017-May-15 11:01N 35°27' E 139°40'0 0.0
2017-May-15 10:31N 35°27' E 139°40'0 0.1
2017-May-15 10:01N 35°27' E 139°40'0 0.0
2017-May-15 09:31N 35°27' E 139°40'0 0.0
2017-May-15 09:01N 35°27' E 139°40'0 0.1
2017-May-15 08:31N 35°27' E 139°40'  

Dump ship's entire track history